Time;durP1;ratioP1;P1;durP2;ratioP2;P2;SDS_P1;SDS_P2;PMS_P1;PMS_P2;Temp;Humidity;BMP_temperature;BMP_pressure;BME280_temperature;BME280_humidity;BME280_pressure;Samples;Min_cycle;Max_cycle;Signal;HPM_P1;HPM_P2
2021/04/10 00:00:08;;;;;;;21.55;11.68;;;;;;;3.15;57.46;101509.81;1654252;86;21675;-61
2021/04/10 00:02:35;;;;;;;18.77;11.22;;;;;;;3.16;57.31;101511.08;1653778;85;21579;-61
2021/04/10 00:05:07;;;;;;;20.57;12.55;;;;;;;3.17;57.21;101511.91;1657845;85;21283;-61
2021/04/10 00:07:34;;;;;;;21.60;11.20;;;;;;;3.16;57.27;101508.47;1671444;84;21132;-60
2021/04/10 00:10:06;;;;;;;18.17;11.22;;;;;;;3.16;57.43;101503.70;1651362;85;21221;-61
2021/04/10 00:12:35;;;;;;;22.30;12.88;;;;;;;3.15;57.58;101506.75;1649927;85;21237;-60
2021/04/10 00:15:07;;;;;;;21.10;12.13;;;;;;;3.13;57.73;101515.06;1656153;86;21296;-61
2021/04/10 00:17:35;;;;;;;25.37;12.60;;;;;;;3.13;57.88;101510.32;1667126;84;21224;-61
2021/04/10 00:20:07;;;;;;;20.82;12.40;;;;;;;3.13;58.20;101505.12;1654103;85;21245;-60
2021/04/10 00:22:35;;;;;;;23.42;13.90;;;;;;;3.12;58.37;101500.80;1655819;86;21166;-61
2021/04/10 00:25:05;;;;;;;21.40;12.68;;;;;;;3.08;58.22;101493.55;1649840;85;21201;-60
2021/04/10 00:27:35;;;;;;;22.87;12.65;;;;;;;3.03;58.20;101498.05;1666736;84;21219;-61
2021/04/10 00:30:04;;;;;;;19.37;10.93;;;;;;;3.01;58.24;101504.17;1663056;84;21239;-60
2021/04/10 00:32:32;;;;;;;20.75;12.18;;;;;;;2.97;58.17;101502.96;1661445;85;21663;-61
2021/04/10 00:35:00;;;;;;;22.52;12.37;;;;;;;2.93;57.79;101496.62;1664400;84;21156;-61
2021/04/10 00:37:28;;;;;;;16.62;11.75;;;;;;;2.93;58.14;101500.53;1664994;85;21183;-61
2021/04/10 00:39:56;;;;;;;18.35;10.75;;;;;;;2.88;58.29;101500.66;1664356;84;21225;-61
2021/04/10 00:42:25;;;;;;;18.32;11.35;;;;;;;2.88;58.31;101498.05;1663320;84;21642;-61
2021/04/10 00:44:52;;;;;;;20.62;11.43;;;;;;;2.87;58.19;101504.14;1674359;84;21179;-61
2021/04/10 00:47:20;;;;;;;14.85;9.63;;;;;;;2.90;58.62;101499.31;1667362;84;21184;-61
2021/04/10 00:49:48;;;;;;;20.23;11.43;;;;;;;2.91;59.39;101499.27;1670013;84;21224;-61
2021/04/10 00:52:15;;;;;;;16.60;9.28;;;;;;;2.92;60.15;101500.95;1665561;84;21235;-61
2021/04/10 00:54:47;;;;;;;23.75;11.78;;;;;;;2.92;61.00;101502.71;1634352;86;21204;-61
2021/04/10 00:57:15;;;;;;;19.65;10.70;;;;;;;2.93;61.35;101500.06;1685417;84;21676;-61
2021/04/10 00:59:42;;;;;;;16.50;10.78;;;;;;;2.95;61.45;101502.62;1661754;85;21193;-61
2021/04/10 01:02:12;;;;;;;20.70;10.58;;;;;;;2.99;61.20;101506.81;1645110;85;21713;-61
2021/04/10 01:04:41;;;;;;;19.20;9.78;;;;;;;3.02;60.74;101509.33;1632343;86;21366;-61
2021/04/10 01:07:09;;;;;;;18.82;10.40;;;;;;;3.02;60.23;101505.89;1629834;86;21273;-61
2021/04/10 01:09:38;;;;;;;17.23;10.82;;;;;;;3.06;59.92;101516.58;1692019;84;21226;-61
2021/04/10 01:12:30;;;;;;;17.27;9.08;;;;;;;3.01;59.93;101508.08;1690253;83;21223;-61
2021/04/10 01:15:41;;;;;;;16.05;10.23;;;;;;;3.01;59.96;101515.45;1686732;84;21610;-60
2021/04/10 01:18:17;;;;;;;22.73;13.15;;;;;;;2.92;60.37;101513.11;1706679;82;21231;-60
2021/04/10 01:21:00;;;;;;;27.02;13.95;;;;;;;2.86;61.16;101514.58;1673301;84;21155;-60
2021/04/10 01:24:23;;;;;;;20.45;13.65;;;;;;;2.78;61.39;101518.27;1688979;83;21222;-60
2021/04/10 01:27:15;;;;;;;26.55;14.55;;;;;;;2.75;61.62;101519.66;1687933;83;21714;-61
2021/04/10 01:31:38;;;;;;;23.18;13.65;;;;;;;2.73;61.70;101513.66;1876371;76;22695;-61
2021/04/10 01:34:11;;;;;;;22.35;14.30;;;;;;;2.67;61.74;101512.98;1850530;77;21254;-61
2021/04/10 01:36:41;;;;;;;25.12;13.58;;;;;;;2.68;61.61;101518.14;1847508;75;21194;-61
2021/04/10 01:39:11;;;;;;;24.85;14.05;;;;;;;2.67;61.20;101520.78;1847082;77;21176;-61
2021/04/10 01:41:43;;;;;;;24.90;14.25;;;;;;;2.67;61.20;101520.78;1848074;76;21183;-61
2021/04/10 01:44:14;;;;;;;24.12;12.93;;;;;;;2.62;61.04;101515.70;1815476;77;21202;-61
2021/04/10 01:46:45;;;;;;;19.70;12.85;;;;;;;2.57;61.02;101517.58;1848491;75;21092;-61
2021/04/10 01:49:13;;;;;;;20.10;12.88;;;;;;;2.53;60.93;101518.13;1815048;76;21655;-61
2021/04/10 01:51:41;;;;;;;19.57;12.43;;;;;;;2.52;60.85;101519.04;1845880;75;21591;-61
2021/04/10 01:54:09;;;;;;;20.62;12.45;;;;;;;2.50;60.71;101521.27;1843191;77;21139;-61
2021/04/10 01:56:39;;;;;;;21.05;13.00;;;;;;;2.49;60.78;101523.02;1840289;77;21108;-62
2021/04/10 01:59:08;;;;;;;19.55;12.28;;;;;;;2.48;61.04;101520.45;1846730;77;21625;-61
2021/04/10 02:01:48;;;;;;;20.95;12.10;;;;;;;2.45;61.14;101517.48;1738416;80;22275;-61
2021/04/10 02:04:17;;;;;;;20.82;12.75;;;;;;;2.40;60.99;101518.94;1817769;77;21144;-61
2021/04/10 02:06:46;;;;;;;20.82;12.28;;;;;;;2.40;60.99;101518.94;1786660;79;21192;-61
2021/04/10 02:09:14;;;;;;;21.80;12.30;;;;;;;2.38;61.07;101519.40;1786143;77;21167;-61
2021/04/10 02:22:16;;;;;;;22.50;13.43;;;;;;;2.08;61.35;101518.94;1838957;77;22643;-62
2021/04/10 02:24:44;;;;;;;20.82;13.20;;;;;;;2.01;61.39;101522.14;1803841;78;21538;-60
2021/04/10 02:27:12;;;;;;;22.87;12.75;;;;;;;2.04;61.26;101521.61;1779786;79;21200;-60
2021/04/10 02:29:44;;;;;;;19.55;11.60;;;;;;;2.03;61.19;101518.63;1795650;79;21201;-61
2021/04/10 02:32:28;;;;;;;23.07;13.22;;;;;;;2.04;61.19;101517.72;1801700;78;21119;-61
2021/04/10 02:35:24;;;;;;;19.32;11.68;;;;;;;2.03;61.17;101516.03;1806910;78;21126;-61
2021/04/10 02:38:11;;;;;;;17.37;10.08;;;;;;;2.07;61.11;101518.09;1866275;76;22831;-61
2021/04/10 02:40:42;;;;;;;20.72;11.03;;;;;;;2.05;60.94;101522.45;1771845;80;21146;-61
2021/04/10 02:43:12;;;;;;;21.73;11.97;;;;;;;2.04;60.94;101523.36;1791902;78;21652;-61
2021/04/10 02:45:42;;;;;;;19.75;11.85;;;;;;;2.08;61.18;101522.38;1748276;80;21081;-61
2021/04/10 02:48:17;;;;;;;24.23;12.90;;;;;;;2.08;61.18;101522.38;1763175;78;21176;-61
2021/04/10 02:50:45;;;;;;;21.17;11.73;;;;;;;2.09;60.95;101525.84;1781897;78;21164;-61
2021/04/10 02:53:13;;;;;;;20.55;10.38;;;;;;;2.04;60.77;101523.36;1780963;78;21269;-61
2021/04/10 02:55:46;;;;;;;22.70;12.15;;;;;;;2.07;61.42;101528.91;1793129;78;21044;-61
2021/04/10 02:58:16;;;;;;;20.62;12.07;;;;;;;2.07;61.42;101528.91;1762817;80;21646;-61
2021/04/10 03:00:45;;;;;;;18.98;11.63;;;;;;;2.10;61.72;101532.73;1759634;77;21144;-61
2021/04/10 03:03:16;;;;;;;20.80;11.80;;;;;;;2.12;62.13;101534.83;1765948;78;21749;-61
2021/04/10 03:05:45;;;;;;;17.62;10.38;;;;;;;2.14;62.05;101538.27;1725845;80;21633;-61
2021/04/10 03:08:19;;;;;;;20.70;10.90;;;;;;;2.14;62.05;101538.27;1797177;78;21379;-61
2021/04/10 03:10:52;;;;;;;15.90;10.32;;;;;;;2.15;62.32;101533.03;1768465;78;21147;-60
2021/04/10 03:13:22;;;;;;;16.27;10.53;;;;;;;2.15;62.25;101539.52;1782727;80;21137;-60
2021/04/10 03:15:53;;;;;;;19.50;11.08;;;;;;;2.14;62.46;101540.41;1788863;78;21767;-60
2021/04/10 03:18:23;;;;;;;18.35;10.65;;;;;;;2.16;62.40;101549.45;1809236;77;21130;-59
2021/04/10 03:20:53;;;;;;;18.27;10.48;;;;;;;2.16;62.40;101549.45;1759686;78;21215;-59
2021/04/10 03:23:21;;;;;;;15.90;10.15;;;;;;;2.17;62.43;101551.14;1806634;78;21211;-59
2021/04/10 03:25:49;;;;;;;14.87;9.65;;;;;;;2.20;62.28;101545.87;1748585;80;21198;-59
2021/04/10 03:28:17;;;;;;;15.40;9.40;;;;;;;2.27;62.38;101548.73;1750723;80;21241;-59
2021/04/10 03:30:47;;;;;;;14.40;9.35;;;;;;;2.27;62.38;101548.73;1789924;78;21375;-59
2021/04/10 03:33:17;;;;;;;17.90;9.55;;;;;;;2.30;62.48;101552.98;1772183;78;21363;-59
2021/04/10 03:35:46;;;;;;;20.77;10.93;;;;;;;2.31;62.61;101552.09;1798150;78;21153;-59
2021/04/10 03:38:14;;;;;;;15.40;8.93;;;;;;;2.30;62.74;101552.98;1754866;79;21213;-59
2021/04/10 03:40:43;;;;;;;20.45;11.40;;;;;;;2.31;62.83;101556.84;1801063;78;21164;-60
2021/04/10 03:43:11;;;;;;;24.23;11.70;;;;;;;2.38;62.80;101558.36;1797603;78;21147;-60
2021/04/10 03:45:42;;;;;;;17.92;11.28;;;;;;;2.39;62.70;101554.88;1774959;79;22550;-60
2021/04/10 03:48:12;;;;;;;17.60;10.45;;;;;;;2.39;62.61;101558.78;1778249;78;21188;-60
2021/04/10 03:50:44;;;;;;;17.07;10.30;;;;;;;2.37;62.70;101555.80;1767648;79;21215;-59
2021/04/10 03:53:12;;;;;;;22.58;11.18;;;;;;;2.41;62.41;101554.84;1783600;78;21222;-58
2021/04/10 03:55:40;;;;;;;21.35;11.12;;;;;;;2.41;62.41;101554.84;1748792;80;21219;-58
2021/04/10 03:58:08;;;;;;;21.30;11.57;;;;;;;2.48;62.29;101556.83;1800849;78;21560;-59
2021/04/10 04:00:37;;;;;;;19.17;11.73;;;;;;;2.50;62.21;101553.73;1797446;78;21179;-58
2021/04/10 04:03:05;;;;;;;20.08;11.12;;;;;;;2.53;62.27;101556.25;1805966;78;21172;-58
2021/04/10 04:05:34;;;;;;;23.77;11.53;;;;;;;2.57;62.28;101554.84;1779906;78;22308;-63
2021/04/10 04:08:02;;;;;;;20.65;11.83;;;;;;;2.57;62.28;101554.84;1767650;78;21113;-61
2021/04/10 04:10:29;;;;;;;19.73;11.75;;;;;;;2.59;62.09;101555.64;1773457;78;21196;-61
2021/04/10 04:12:57;;;;;;;21.85;12.00;;;;;;;2.66;62.35;101559.37;1769283;78;21166;-61
2021/04/10 04:15:26;;;;;;;21.90;11.55;;;;;;;2.66;62.35;101559.37;1803883;78;21167;-61
2021/04/10 04:17:55;;;;;;;21.60;11.28;;;;;;;2.73;62.43;101557.84;1788268;78;21203;-62
2021/04/10 04:20:23;;;;;;;22.55;12.37;;;;;;;2.79;62.55;101559.40;1795202;78;21178;-62
2021/04/10 04:22:52;;;;;;;22.48;13.28;;;;;;;2.85;62.81;101558.39;1791629;78;21243;-61
2021/04/10 04:25:21;;;;;;;20.45;13.50;;;;;;;2.92;63.01;101564.65;1782007;78;21203;-61
2021/04/10 04:27:51;;;;;;;22.67;12.33;;;;;;;3.01;63.14;101564.85;1781159;78;21156;-62
2021/04/10 04:30:21;;;;;;;19.37;11.20;;;;;;;3.08;62.86;101562.92;1781499;78;21191;-61
2021/04/10 04:32:48;;;;;;;17.92;10.78;;;;;;;3.14;62.88;101558.39;1782428;79;21159;-61
2021/04/10 04:35:16;;;;;;;19.57;11.70;;;;;;;3.22;62.84;101560.74;1751733;80;21227;-61
2021/04/10 04:37:45;;;;;;;19.62;11.95;;;;;;;3.37;62.48;101562.02;1789210;78;21182;-61
2021/04/10 04:40:14;;;;;;;19.48;12.35;;;;;;;3.37;62.48;101562.02;1777833;79;21191;-61
2021/04/10 04:42:42;;;;;;;18.12;10.55;;;;;;;3.46;62.51;101560.88;1755007;79;21242;-62
2021/04/10 04:45:11;;;;;;;24.72;12.73;;;;;;;3.51;62.08;101554.65;1786196;79;21610;-62
2021/04/10 04:47:38;;;;;;;20.55;12.37;;;;;;;3.63;62.00;101567.72;1754244;78;21548;-62
2021/04/10 04:50:09;;;;;;;26.00;11.85;;;;;;;3.69;61.78;101566.66;1795824;78;21752;-64
2021/04/10 04:52:36;;;;;;;18.73;12.07;;;;;;;3.69;61.78;101566.66;1767062;79;21214;-61
2021/04/10 04:55:06;;;;;;;16.80;10.98;;;;;;;3.78;61.69;101570.71;1755535;79;21480;-61
2021/04/10 04:57:34;;;;;;;22.65;12.73;;;;;;;3.88;61.35;101566.91;1752578;78;21163;-62
2021/04/10 05:00:02;;;;;;;20.97;12.10;;;;;;;3.99;60.86;101568.70;1752911;79;21210;-60
2021/04/10 05:02:30;;;;;;;15.15;9.33;;;;;;;4.08;60.31;101566.23;1789980;79;21202;-62
2021/04/10 05:04:59;;;;;;;16.82;9.03;;;;;;;4.20;59.56;101563.66;1810865;77;21116;-62
2021/04/10 05:07:26;;;;;;;18.45;9.33;;;;;;;4.31;58.81;101564.61;1754781;80;21671;-61
2021/04/10 05:09:55;;;;;;;15.35;9.00;;;;;;;4.39;58.23;101563.89;1784671;79;21223;-59
2021/04/10 05:12:22;;;;;;;16.20;8.70;;;;;;;4.48;57.51;101566.16;1786861;80;21211;-59
2021/04/10 05:14:50;;;;;;;12.60;8.48;;;;;;;4.58;57.42;101559.70;1806431;78;21230;-61
2021/04/10 05:17:18;;;;;;;15.48;9.45;;;;;;;4.67;56.97;101556.38;1804787;78;21255;-61
2021/04/10 05:19:46;;;;;;;16.02;9.35;;;;;;;4.75;56.64;101552.56;1774482;80;21227;-62
2021/04/10 05:22:14;;;;;;;15.03;9.48;;;;;;;4.83;56.31;101559.66;1807787;78;21227;-62
2021/04/10 05:24:41;;;;;;;12.65;7.83;;;;;;;4.92;56.17;101558.45;1783407;79;21658;-61
2021/04/10 05:27:09;;;;;;;16.23;8.90;;;;;;;5.01;56.09;101558.13;1783064;78;21143;-62
2021/04/10 05:29:37;;;;;;;15.65;8.90;;;;;;;5.10;55.46;101559.53;1796717;79;21160;-62
2021/04/10 05:32:06;;;;;;;14.90;7.87;;;;;;;5.18;55.42;101559.25;1747184;79;21160;-61
2021/04/10 05:34:35;;;;;;;14.33;8.23;;;;;;;5.28;55.38;101559.71;1795347;78;21165;-63
2021/04/10 05:37:02;;;;;;;15.93;8.33;;;;;;;5.34;55.07;101551.19;1758503;80;21347;-61
2021/04/10 05:39:30;;;;;;;12.28;7.72;;;;;;;5.42;55.11;101558.73;1776799;78;21202;-62
2021/04/10 05:41:57;;;;;;;13.43;8.10;;;;;;;5.52;55.07;101556.61;1796032;78;21489;-65
2021/04/10 05:44:25;;;;;;;18.30;8.08;;;;;;;5.60;55.02;101553.23;1801861;78;21143;-62
2021/04/10 05:46:53;;;;;;;13.85;8.05;;;;;;;5.69;54.62;101554.16;1804681;79;21176;-63
2021/04/10 05:49:20;;;;;;;13.10;7.62;;;;;;;5.79;54.22;101558.55;1785862;78;21198;-62
2021/04/10 05:51:48;;;;;;;13.15;8.23;;;;;;;5.86;53.89;101557.84;1787685;78;21442;-63
2021/04/10 05:54:15;;;;;;;13.68;7.90;;;;;;;5.96;53.94;101553.95;1753464;80;21236;-63
2021/04/10 05:56:45;;;;;;;13.70;8.05;;;;;;;6.03;53.92;101550.16;1771805;80;21219;-62
2021/04/10 05:59:12;;;;;;;17.40;7.97;;;;;;;6.13;53.55;101552.77;1784278;78;21163;-60
2021/04/10 06:01:41;;;;;;;13.78;7.30;;;;;;;6.24;53.19;101551.49;1811928;77;21384;-62
2021/04/10 06:04:08;;;;;;;12.50;6.50;;;;;;;6.35;52.78;101558.39;1744035;79;21225;-61
2021/04/10 06:06:37;;;;;;;11.90;6.28;;;;;;;6.44;52.26;101560.62;1760365;79;21227;-62
2021/04/10 06:09:05;;;;;;;10.95;6.20;;;;;;;6.57;51.89;101560.06;1792773;78;21230;-61
2021/04/10 06:11:33;;;;;;;11.63;6.72;;;;;;;6.69;51.40;101560.38;1798817;77;21183;-61
2021/04/10 06:14:01;;;;;;;11.22;6.10;;;;;;;6.79;50.79;101558.20;1795784;79;21198;-62
2021/04/10 06:16:29;;;;;;;8.85;5.03;;;;;;;6.91;50.27;101559.41;1791994;77;21203;-61
2021/04/10 06:18:59;;;;;;;11.33;5.42;;;;;;;7.05;49.13;101554.84;1780362;79;21119;-61
2021/04/10 06:21:28;;;;;;;11.90;6.40;;;;;;;7.18;48.07;101552.03;1784497;79;21191;-62
2021/04/10 06:23:56;;;;;;;10.25;6.42;;;;;;;7.32;48.25;101550.06;1779322;79;21244;-62
2021/04/10 06:26:24;;;;;;;11.08;5.35;;;;;;;7.46;47.85;101547.25;1769629;78;21207;-64
2021/04/10 06:28:51;;;;;;;10.18;5.00;;;;;;;7.61;47.56;101553.05;1747040;79;21264;-64
2021/04/10 06:31:19;;;;;;;13.70;6.40;;;;;;;7.74;46.59;101545.44;1772202;78;21772;-61
2021/04/10 06:33:46;;;;;;;9.53;5.17;;;;;;;7.88;46.40;101546.89;1775356;80;21236;-66
2021/04/10 06:36:16;;;;;;;8.63;5.17;;;;;;;8.05;45.92;101546.52;1774461;78;21194;-63
2021/04/10 06:38:44;;;;;;;7.15;4.22;;;;;;;8.19;45.07;101546.67;1781684;80;21341;-62
2021/04/10 06:41:13;;;;;;;7.10;3.77;;;;;;;8.30;43.45;101542.17;1797004;78;21183;-58
2021/04/10 06:43:43;;;;;;;8.80;4.20;;;;;;;8.40;42.57;101543.85;1771167;78;21207;-65
2021/04/10 06:46:11;;;;;;;7.97;3.55;;;;;;;8.49;40.32;101539.45;1784350;78;21123;-62
2021/04/10 06:48:39;;;;;;;11.97;4.10;;;;;;;8.55;39.84;101543.08;1781953;78;21233;-62
2021/04/10 06:51:07;;;;;;;7.33;4.00;;;;;;;8.58;39.28;101540.30;1776162;78;22602;-61
2021/04/10 06:53:46;;;;;;;8.68;4.05;;;;;;;8.64;39.88;101547.84;1793327;78;21219;-63
2021/04/10 06:56:26;;;;;;;8.08;3.87;;;;;;;8.70;38.49;101541.41;1755594;79;21210;-62
2021/04/10 06:59:02;;;;;;;8.68;3.90;;;;;;;8.74;39.01;101541.62;1779923;79;22292;-62
2021/04/10 07:01:31;;;;;;;6.37;3.30;;;;;;;8.79;39.31;101544.84;1772720;78;21242;-63
2021/04/10 07:04:01;;;;;;;8.10;4.15;;;;;;;8.87;38.99;101550.52;1772093;79;21206;-58
2021/04/10 07:06:31;;;;;;;6.25;3.42;;;;;;;8.96;38.51;101543.95;1775929;78;21215;-61
2021/04/10 07:08:58;;;;;;;7.12;3.52;;;;;;;9.05;38.32;101549.99;1785616;79;21222;-59
2021/04/10 07:11:26;;;;;;;8.18;3.72;;;;;;;9.15;38.66;101553.44;1784481;78;21199;-60
2021/04/10 07:13:53;;;;;;;7.97;3.85;;;;;;;9.25;38.94;101554.63;1780336;79;21539;-59
2021/04/10 07:16:21;;;;;;;7.00;3.20;;;;;;;9.35;38.10;101553.17;1750623;80;21314;-58
2021/04/10 07:18:49;;;;;;;12.75;4.58;;;;;;;9.42;37.65;101550.57;1785107;78;21657;-59
2021/04/10 07:21:20;;;;;;;6.55;3.33;;;;;;;9.53;37.80;101558.30;1785021;79;21195;-62
2021/04/10 07:23:55;;;;;;;8.95;4.47;;;;;;;9.62;37.52;101543.34;1781887;79;21431;-63
2021/04/10 07:26:47;;;;;;;8.13;4.03;;;;;;;9.69;37.64;101553.03;1803782;78;21187;-59
2021/04/10 07:29:35;;;;;;;9.28;3.95;;;;;;;9.75;37.82;101549.59;1764125;79;21394;-58
2021/04/10 07:32:33;;;;;;;6.58;3.58;;;;;;;9.80;37.34;101549.30;1796600;78;21816;-58
2021/04/10 07:35:12;;;;;;;9.63;4.58;;;;;;;9.84;36.31;101548.20;1777887;78;21211;-59
2021/04/10 07:37:43;;;;;;;6.97;3.67;;;;;;;9.85;36.78;101548.11;1800092;78;21196;-58
2021/04/10 07:40:28;;;;;;;8.40;4.00;;;;;;;9.88;36.85;101547.07;1744809;79;21232;-59
2021/04/10 07:43:02;;;;;;;7.80;3.98;;;;;;;9.92;36.82;101547.73;1778053;79;21211;-59
2021/04/10 07:45:35;;;;;;;7.42;3.75;;;;;;;9.96;37.24;101544.00;1774127;79;21207;-60
2021/04/10 07:48:14;;;;;;;9.05;3.35;;;;;;;9.99;37.39;101542.03;1764404;79;21192;-61
2021/04/10 07:50:41;;;;;;;7.47;3.55;;;;;;;10.08;37.30;101530.12;1773096;80;21187;-59
2021/04/10 07:53:25;;;;;;;6.97;3.77;;;;;;;10.17;37.14;101541.86;1783714;78;21183;-60
2021/04/10 07:55:57;;;;;;;7.47;3.83;;;;;;;10.25;37.22;101536.16;1810493;78;21184;-60
2021/04/10 07:58:28;;;;;;;7.37;3.87;;;;;;;10.36;36.74;101539.03;1772022;78;21551;-59
2021/04/10 08:01:06;;;;;;;6.65;2.98;;;;;;;10.45;36.61;101533.19;1777713;77;21151;-59
2021/04/10 08:03:39;;;;;;;7.95;4.05;;;;;;;10.53;36.24;101528.30;1808247;77;21163;-60
2021/04/10 08:06:14;;;;;;;9.15;3.72;;;;;;;10.60;36.98;101532.23;1809615;78;21617;-61
2021/04/10 08:08:57;;;;;;;8.45;3.90;;;;;;;10.69;36.04;101527.34;1782248;80;21357;-61
2021/04/10 08:11:42;;;;;;;8.60;3.98;;;;;;;10.74;35.95;101531.41;1800584;78;21218;-62
2021/04/10 08:14:12;;;;;;;10.78;4.97;;;;;;;10.83;36.46;101531.77;1782218;78;21196;-60
2021/04/10 08:16:48;;;;;;;7.83;3.50;;;;;;;10.95;35.59;101533.14;1809121;77;21157;-59
2021/04/10 08:19:17;;;;;;;8.83;4.17;;;;;;;11.03;35.59;101524.77;1813064;77;21250;-60
2021/04/10 08:21:49;;;;;;;10.35;3.90;;;;;;;11.09;34.85;101528.31;1774683;79;21224;-59
2021/04/10 08:24:25;;;;;;;8.28;3.80;;;;;;;11.11;34.81;101521.63;1788914;79;21216;-61
2021/04/10 08:27:03;;;;;;;7.05;3.60;;;;;;;11.17;34.78;101528.31;1781200;78;21179;-62
2021/04/10 08:29:32;;;;;;;7.90;4.28;;;;;;;11.26;34.58;101519.34;1812914;78;21570;-60
2021/04/10 08:32:01;;;;;;;9.25;4.20;;;;;;;11.32;34.58;101528.63;1779741;80;21150;-58
2021/04/10 08:34:30;;;;;;;18.90;5.20;;;;;;;11.36;34.19;101524.00;1757544;80;22114;-58
2021/04/10 08:37:01;;;;;;;6.78;3.72;;;;;;;11.40;34.42;101520.20;1803363;78;21146;-58
2021/04/10 08:39:39;;;;;;;9.50;3.65;;;;;;;11.46;33.84;101518.50;1811864;78;21113;-59
2021/04/10 08:42:09;;;;;;;7.85;3.95;;;;;;;11.55;33.84;101522.31;1749929;80;21170;-58
2021/04/10 08:44:37;;;;;;;6.58;3.40;;;;;;;11.57;33.87;101525.23;1745560;78;21186;-57
2021/04/10 08:47:05;;;;;;;6.65;3.17;;;;;;;11.61;33.39;101523.23;1804548;77;21294;-58
2021/04/10 08:49:37;;;;;;;7.05;3.80;;;;;;;11.62;33.10;101521.82;1813184;78;21483;-58
2021/04/10 08:52:08;;;;;;;12.05;4.53;;;;;;;11.65;33.30;101512.39;1811961;77;21167;-60
2021/04/10 08:54:38;;;;;;;8.43;4.10;;;;;;;11.66;32.58;101519.34;1773294;78;21243;-61
2021/04/10 08:57:12;;;;;;;9.13;4.17;;;;;;;11.69;33.01;101524.41;1788896;78;21191;-62
2021/04/10 08:59:44;;;;;;;11.70;4.03;;;;;;;11.74;32.88;101518.84;1779699;78;21203;-61
2021/04/10 09:02:20;;;;;;;7.72;4.20;;;;;;;11.79;33.19;101514.59;1774289;78;21289;-58
2021/04/10 09:05:04;;;;;;;10.28;4.42;;;;;;;11.82;32.99;101523.12;1780898;79;21204;-58
2021/04/10 09:07:53;;;;;;;6.40;3.35;;;;;;;11.84;32.51;101524.34;1783401;78;21216;-58
2021/04/10 09:10:29;;;;;;;7.92;4.00;;;;;;;11.82;32.95;101520.49;1773883;78;21503;-59
2021/04/10 09:13:14;;;;;;;7.90;4.15;;;;;;;11.86;32.27;101507.45;1785618;78;21211;-60
2021/04/10 09:15:42;;;;;;;9.03;4.55;;;;;;;11.88;33.00;101508.22;1771823;78;21199;-60
2021/04/10 09:18:11;;;;;;;7.72;4.25;;;;;;;11.92;32.14;101514.61;1782951;80;21206;-60
2021/04/10 09:20:50;;;;;;;8.13;3.67;;;;;;;11.89;32.51;101506.42;1804900;77;21185;-61
2021/04/10 09:23:28;;;;;;;8.10;4.15;;;;;;;11.92;33.70;101507.56;1781063;80;21202;-59
2021/04/10 09:26:17;;;;;;;9.28;4.50;;;;;;;12.05;33.60;101503.15;1769740;80;21213;-60
2021/04/10 09:29:09;;;;;;;9.25;4.30;;;;;;;12.20;33.30;101502.54;1770450;78;21216;-62
2021/04/10 09:31:46;;;;;;;10.40;4.75;;;;;;;12.33;32.72;101502.55;1756627;80;21187;-60
2021/04/10 09:34:59;;;;;;;10.80;3.80;;;;;;;12.39;32.94;101501.27;1746874;80;21906;-59
2021/04/10 09:37:32;;;;;;;8.93;3.90;;;;;;;12.44;32.19;101490.77;1710943;79;21200;-58
2021/04/10 09:40:18;;;;;;;8.37;4.77;;;;;;;12.47;31.65;101495.45;1773445;79;21152;-60
2021/04/10 09:42:50;;;;;;;8.70;4.78;;;;;;;12.39;31.96;101492.89;1757500;80;21144;-59
2021/04/10 09:45:30;;;;;;;9.58;4.20;;;;;;;12.32;32.56;101485.01;1766657;80;21125;-59
2021/04/10 09:48:07;;;;;;;8.08;4.90;;;;;;;12.32;33.08;101486.33;1705659;80;21182;-58
2021/04/10 09:50:44;;;;;;;6.17;3.33;;;;;;;12.40;32.97;101488.45;1780870;78;21143;-59
2021/04/10 09:53:23;;;;;;;11.88;4.22;;;;;;;12.49;32.36;101488.27;1785846;78;21214;-59
2021/04/10 09:56:02;;;;;;;7.97;3.77;;;;;;;12.58;32.03;101481.03;1791191;78;21174;-61
2021/04/10 09:58:42;;;;;;;7.10;3.47;;;;;;;12.64;30.65;101481.44;1749625;80;21135;-58
2021/04/10 10:01:19;;;;;;;7.90;3.65;;;;;;;12.68;31.01;101479.42;1782383;80;21241;-60
2021/04/10 10:03:49;;;;;;;10.25;3.85;;;;;;;12.77;32.51;101470.82;1759838;80;21120;-58
2021/04/10 10:06:35;;;;;;;8.35;4.50;;;;;;;12.89;31.71;101469.09;1762929;80;22110;-58
2021/04/10 10:09:28;;;;;;;6.92;3.83;;;;;;;12.98;30.87;101474.20;1757448;80;21163;-59
2021/04/10 10:11:57;;;;;;;10.55;4.28;;;;;;;12.98;30.58;101464.96;1781672;78;21202;-61
2021/04/10 10:14:26;;;;;;;8.15;4.42;;;;;;;12.91;30.75;101471.17;1768873;80;21214;-62
2021/04/10 10:16:54;;;;;;;9.20;4.03;;;;;;;12.90;31.76;101462.03;1760990;80;21663;-62
2021/04/10 10:19:23;;;;;;;8.13;4.28;;;;;;;12.99;31.96;101461.34;1759109;80;21274;-61
2021/04/10 10:21:50;;;;;;;8.93;3.52;;;;;;;13.16;32.04;101459.65;1730262;80;21175;-61
2021/04/10 10:24:21;;;;;;;7.92;4.20;;;;;;;13.30;31.10;101454.65;1740085;80;21212;-61
2021/04/10 10:26:49;;;;;;;11.63;3.92;;;;;;;13.40;31.05;101452.66;1759935;80;21194;-60
2021/04/10 10:29:19;;;;;;;12.82;4.83;;;;;;;13.41;30.50;101447.75;1762674;80;21202;-60
2021/04/10 10:31:50;;;;;;;8.03;4.25;;;;;;;13.40;30.95;101450.87;1758700;80;21408;-59
2021/04/10 10:34:20;;;;;;;11.15;4.50;;;;;;;13.46;31.21;101457.01;1764838;80;21077;-60
2021/04/10 10:36:51;;;;;;;7.58;4.55;;;;;;;13.55;31.15;101446.23;1763036;79;21152;-60
2021/04/10 10:39:32;;;;;;;8.38;4.35;;;;;;;13.63;30.20;101450.44;1767287;80;21227;-60
2021/04/10 10:42:02;;;;;;;9.20;4.22;;;;;;;13.61;30.54;101442.27;1763688;80;21187;-59
2021/04/10 10:44:30;;;;;;;7.40;3.98;;;;;;;13.64;31.41;101439.41;1760383;81;21374;-60
2021/04/10 10:47:03;;;;;;;7.03;3.83;;;;;;;13.76;31.03;101435.81;1766460;80;21159;-59
2021/04/10 10:49:31;;;;;;;11.12;4.62;;;;;;;13.87;30.34;101434.52;1759498;79;21171;-59
2021/04/10 10:52:00;;;;;;;7.60;4.12;;;;;;;13.89;30.69;101437.88;1755054;81;21135;-62
2021/04/10 10:54:36;;;;;;;6.90;3.83;;;;;;;13.93;31.58;101430.53;1740547;80;21181;-59
2021/04/10 10:57:10;;;;;;;7.15;3.87;;;;;;;14.02;31.13;101419.25;1730970;80;22685;-60
2021/04/10 10:59:39;;;;;;;6.55;3.42;;;;;;;14.07;30.01;101422.38;1758860;80;21158;-59
2021/04/10 11:02:09;;;;;;;7.37;3.98;;;;;;;14.03;29.66;101424.05;1741277;80;21275;-60
2021/04/10 11:04:38;;;;;;;8.43;4.33;;;;;;;14.03;30.47;101422.73;1739770;80;21183;-61
2021/04/10 11:07:06;;;;;;;7.78;3.75;;;;;;;14.07;29.08;101423.70;1757708;80;21173;-63
2021/04/10 11:09:37;;;;;;;6.10;3.30;;;;;;;14.11;29.50;101413.71;1740263;81;21187;-64
2021/04/10 11:12:11;;;;;;;6.40;3.58;;;;;;;14.17;30.23;101407.95;1758953;80;21584;-60
2021/04/10 11:14:42;;;;;;;7.22;3.40;;;;;;;14.27;30.35;101413.33;1727186;81;21218;-62
2021/04/10 11:17:11;;;;;;;12.00;4.08;;;;;;;14.37;29.31;101415.59;1781363;80;21191;-58
2021/04/10 11:19:45;;;;;;;9.90;4.03;;;;;;;14.41;28.97;101405.63;1722407;81;21763;-61
2021/04/10 11:22:15;;;;;;;8.88;4.08;;;;;;;14.38;29.47;101407.20;1762962;79;22107;-60
2021/04/10 11:24:51;;;;;;;6.33;3.50;;;;;;;14.44;30.32;101404.90;1765378;79;21235;-59
2021/04/10 11:27:23;;;;;;;7.25;3.72;;;;;;;14.58;29.63;101401.62;1791580;78;21166;-65
2021/04/10 11:29:59;;;;;;;7.95;3.45;;;;;;;14.64;28.58;101404.65;1758406;78;21529;-59
2021/04/10 11:32:42;;;;;;;9.38;3.37;;;;;;;14.67;28.01;101399.08;1746879;80;24151;-58
2021/04/10 11:35:23;;;;;;;7.97;3.95;;;;;;;14.68;27.67;101394.16;1753895;80;21234;-64
2021/04/10 11:37:55;;;;;;;6.70;3.60;;;;;;;14.71;27.68;101384.27;1763665;78;21224;-58
2021/04/10 11:40:31;;;;;;;8.00;3.60;;;;;;;14.72;27.13;101393.91;1765844;79;21664;-58
2021/04/10 11:43:02;;;;;;;8.93;3.35;;;;;;;14.68;27.29;101380.91;1777029;79;21163;-65
2021/04/10 11:45:36;;;;;;;8.18;3.33;;;;;;;14.69;28.23;101383.06;1711978;81;21172;-67
2021/04/10 11:48:16;;;;;;;6.25;2.95;;;;;;;14.83;28.34;101376.66;1734924;81;21186;-62
2021/04/10 11:51:03;;;;;;;6.47;2.80;;;;;;;15.01;28.01;101376.45;1740201;80;21231;-59
2021/04/10 11:53:38;;;;;;;7.10;3.45;;;;;;;15.16;27.32;101368.17;1758036;78;21112;-59
2021/04/10 11:56:33;;;;;;;6.12;3.10;;;;;;;15.25;26.72;101362.12;1754900;80;21198;-60